Time;durP1;ratioP1;P1;durP2;ratioP2;P2;SDS_P1;SDS_P2;PMS_P1;PMS_P2;Temp;Humidity;BMP_temperature;BMP_pressure;BME280_temperature;BME280_humidity;BME280_pressure;Samples;Min_cycle;Max_cycle;Signal;HPM_P1;HPM_P2
2024/02/07 00:01:27;;;;;;;3.90;2.00;;;21.10;53.30;;;;;;5034994;28;20448;-70
2024/02/07 00:03:52;;;;;;;4.50;2.53;;;21.10;53.30;;;;;;5035250;28;20903;-70
2024/02/07 00:06:18;;;;;;;3.77;2.40;;;21.10;53.20;;;;;;5034925;28;20225;-70
2024/02/07 00:08:44;;;;;;;5.00;2.80;;;21.10;53.30;;;;;;5035268;28;20286;-70
2024/02/07 00:11:09;;;;;;;4.20;2.33;;;21.10;53.30;;;;;;5034898;28;20196;-70
2024/02/07 00:13:35;;;;;;;3.30;2.43;;;21.10;53.30;;;;;;5035073;28;20302;-70
2024/02/07 00:16:01;;;;;;;2.77;1.70;;;21.10;53.30;;;;;;5034616;28;20207;-71
2024/02/07 00:18:27;;;;;;;4.57;2.90;;;21.10;53.30;;;;;;5035170;28;20176;-70
2024/02/07 00:20:53;;;;;;;2.70;1.90;;;21.10;53.30;;;;;;5034472;28;20441;-70
2024/02/07 00:23:18;;;;;;;3.47;2.00;;;21.10;53.30;;;;;;5034823;28;20178;-69
2024/02/07 00:25:44;;;;;;;4.13;2.30;;;21.10;53.30;;;;;;5034418;28;20274;-70
2024/02/07 00:28:10;;;;;;;2.77;1.90;;;21.10;53.30;;;;;;5034695;28;20590;-70
2024/02/07 00:30:35;;;;;;;5.43;2.20;;;21.00;53.20;;;;;;5034341;28;20290;-68
2024/02/07 00:33:02;;;;;;;3.33;1.87;;;21.00;53.20;;;;;;5034503;28;20187;-71
2024/02/07 00:35:27;;;;;;;2.87;1.53;;;21.10;53.30;;;;;;5034573;28;20655;-70
2024/02/07 00:37:53;;;;;;;2.97;2.20;;;21.00;53.20;;;;;;5034593;28;20421;-70
2024/02/07 00:40:19;;;;;;;4.40;1.90;;;21.10;53.30;;;;;;5034423;28;20171;-70
2024/02/07 00:42:46;;;;;;;4.60;2.50;;;21.00;53.20;;;;;;5034430;28;20172;-70
2024/02/07 00:45:12;;;;;;;2.90;1.60;;;21.10;53.30;;;;;;5034108;28;20195;-69
2024/02/07 00:47:37;;;;;;;5.67;2.40;;;21.00;53.30;;;;;;5034408;28;20426;-70
2024/02/07 00:50:03;;;;;;;3.30;1.83;;;21.00;53.20;;;;;;5034143;28;20172;-70
2024/02/07 00:52:29;;;;;;;3.47;2.10;;;21.00;53.20;;;;;;5033992;28;20192;-69
2024/02/07 00:54:55;;;;;;;3.53;1.90;;;21.00;53.30;;;;;;5033849;28;20415;-70
2024/02/07 00:57:20;;;;;;;4.27;1.93;;;21.00;53.30;;;;;;5034099;28;20200;-69
2024/02/07 00:59:46;;;;;;;3.60;1.93;;;21.00;53.30;;;;;;5034011;28;20291;-70
2024/02/07 01:02:11;;;;;;;2.93;1.93;;;21.00;53.30;;;;;;5033726;28;20199;-70
2024/02/07 01:04:37;;;;;;;5.00;2.87;;;21.00;53.30;;;;;;5033577;28;20179;-70
2024/02/07 01:07:03;;;;;;;2.40;2.00;;;21.00;53.30;;;;;;5034141;28;20179;-70
2024/02/07 01:09:29;;;;;;;5.50;2.30;;;21.00;53.30;;;;;;5032379;28;20263;-69
2024/02/07 01:11:55;;;;;;;4.30;3.00;;;21.00;53.30;;;;;;5033455;28;20568;-70
2024/02/07 01:14:20;;;;;;;3.13;1.90;;;21.00;53.30;;;;;;5033345;28;20419;-70
2024/02/07 01:16:46;;;;;;;3.30;2.33;;;21.00;53.20;;;;;;5032475;28;20198;-71
2024/02/07 01:19:11;;;;;;;3.53;2.10;;;21.00;53.30;;;;;;5033618;28;20639;-69
2024/02/07 01:21:37;;;;;;;3.33;2.23;;;21.00;53.30;;;;;;5033499;28;20211;-70
2024/02/07 01:24:06;;;;;;;4.03;2.40;;;21.00;53.30;;;;;;5033794;28;20193;-69
2024/02/07 01:26:33;;;;;;;3.87;2.00;;;21.00;53.30;;;;;;5033612;28;20226;-71
2024/02/07 01:28:59;;;;;;;1.97;1.60;;;21.00;53.30;;;;;;5033521;28;20407;-70
2024/02/07 01:31:25;;;;;;;3.00;2.27;;;21.00;53.20;;;;;;5033310;28;20426;-70
2024/02/07 01:33:50;;;;;;;2.40;1.63;;;21.00;53.30;;;;;;5033116;28;20172;-70
2024/02/07 01:36:17;;;;;;;3.87;2.30;;;21.00;53.20;;;;;;5033490;28;20286;-71
2024/02/07 01:38:42;;;;;;;4.23;1.93;;;21.00;53.30;;;;;;5032772;28;20167;-69
2024/02/07 01:41:08;;;;;;;5.37;2.90;;;21.00;53.30;;;;;;5033054;28;20422;-70
2024/02/07 01:43:34;;;;;;;3.07;1.87;;;21.00;53.30;;;;;;5033125;28;20552;-70
2024/02/07 01:46:03;;;;;;;3.00;2.00;;;21.00;53.30;;;;;;5033310;28;20175;-70
2024/02/07 01:48:29;;;;;;;3.73;1.87;;;21.00;53.20;;;;;;5032914;28;20258;-70
2024/02/07 01:50:56;;;;;;;4.40;1.80;;;21.00;53.30;;;;;;5033199;28;20462;-70
2024/02/07 01:53:22;;;;;;;3.90;1.50;;;21.00;53.30;;;;;;5032723;28;20426;-71
2024/02/07 01:55:51;;;;;;;4.33;2.43;;;21.00;53.30;;;;;;5032882;28;20462;-70
2024/02/07 01:58:18;;;;;;;4.10;2.20;;;21.00;53.30;;;;;;5032742;28;20402;-69
2024/02/07 02:00:45;;;;;;;3.53;2.20;;;21.00;53.30;;;;;;5032677;28;20438;-70
2024/02/07 02:03:13;;;;;;;4.03;2.03;;;21.00;53.30;;;;;;5033158;28;20437;-70
2024/02/07 02:05:42;;;;;;;3.33;2.93;;;21.00;53.30;;;;;;5032665;28;20406;-70
2024/02/07 02:08:08;;;;;;;2.33;1.73;;;20.90;53.20;;;;;;5032740;28;20406;-70
2024/02/07 02:10:35;;;;;;;3.40;1.93;;;21.00;53.30;;;;;;5031296;28;20430;-70
2024/02/07 02:13:02;;;;;;;2.33;1.57;;;20.90;53.30;;;;;;5032742;28;20403;-71
2024/02/07 02:15:28;;;;;;;2.20;1.90;;;20.90;53.30;;;;;;5031209;28;20868;-70
2024/02/07 02:17:54;;;;;;;2.77;1.97;;;20.90;53.30;;;;;;5032752;28;20422;-70
2024/02/07 02:20:20;;;;;;;2.47;1.67;;;20.90;53.30;;;;;;5032261;28;20409;-70
2024/02/07 02:22:48;;;;;;;3.83;2.00;;;20.90;53.30;;;;;;5032549;28;20183;-71
2024/02/07 02:25:29;;;;;;;2.60;1.80;;;20.90;53.30;;;;;;5032958;28;20410;-70
2024/02/07 02:28:01;;;;;;;2.40;1.80;;;20.90;53.30;;;;;;5032093;28;20402;-69
2024/02/07 02:30:40;;;;;;;2.60;1.80;;;20.90;53.30;;;;;;5032359;28;20398;-70
2024/02/07 02:33:12;;;;;;;2.67;2.00;;;21.00;53.40;;;;;;5032350;28;20398;-70
2024/02/07 02:35:39;;;;;;;3.20;2.13;;;20.90;53.30;;;;;;5032458;28;20423;-70
2024/02/07 02:38:05;;;;;;;2.83;1.97;;;20.90;53.30;;;;;;5032705;28;20497;-70
2024/02/07 02:40:31;;;;;;;2.33;1.77;;;20.90;53.30;;;;;;5032514;28;20458;-71
2024/02/07 02:42:58;;;;;;;3.20;2.17;;;20.90;53.30;;;;;;5032885;28;20694;-68
2024/02/07 02:45:24;;;;;;;2.13;1.67;;;20.90;53.30;;;;;;5032054;28;20410;-70
2024/02/07 02:47:50;;;;;;;2.73;1.70;;;20.90;53.30;;;;;;5030870;28;20993;-69
2024/02/07 02:50:21;;;;;;;2.50;1.70;;;20.90;53.30;;;;;;5031692;28;20552;-70
2024/02/07 02:52:46;;;;;;;2.60;2.17;;;20.90;53.30;;;;;;5032208;28;20635;-70
2024/02/07 02:55:12;;;;;;;2.60;2.10;;;20.90;53.90;;;;;;5031266;28;20425;-69
2024/02/07 02:57:38;;;;;;;2.20;1.53;;;20.90;53.30;;;;;;5032177;28;20195;-71
2024/02/07 03:00:07;;;;;;;3.67;2.03;;;20.90;53.30;;;;;;5031750;28;20521;-70
2024/02/07 03:02:36;;;;;;;2.53;1.70;;;20.90;53.30;;;;;;5031914;28;20971;-70
2024/02/07 03:05:03;;;;;;;3.37;1.87;;;20.90;53.30;;;;;;5032462;28;20452;-70
2024/02/07 03:07:53;;;;;;;2.63;1.70;;;20.90;53.30;;;;;;5032108;28;20417;-70
2024/02/07 03:10:20;;;;;;;2.20;1.80;;;20.90;53.30;;;;;;5031933;28;20410;-69
2024/02/07 03:12:46;;;;;;;3.33;1.97;;;20.90;53.50;;;;;;5032806;28;20497;-70
2024/02/07 03:15:12;;;;;;;2.97;2.30;;;20.90;53.30;;;;;;5031068;28;20866;-70
2024/02/07 03:17:37;;;;;;;3.60;2.03;;;20.90;53.30;;;;;;5032354;28;20693;-71
2024/02/07 03:20:05;;;;;;;4.30;1.80;;;20.90;53.30;;;;;;5031873;28;20222;-70
2024/02/07 03:22:30;;;;;;;3.73;2.17;;;20.90;53.30;;;;;;5031701;28;20207;-71
2024/02/07 03:24:56;;;;;;;3.73;1.90;;;20.90;53.30;;;;;;5030349;28;20414;-70
2024/02/07 03:27:22;;;;;;;3.00;1.90;;;20.90;53.30;;;;;;5032112;28;20167;-70
2024/02/07 03:29:48;;;;;;;2.60;2.17;;;20.90;53.30;;;;;;5031961;28;20167;-70
2024/02/07 03:32:14;;;;;;;3.13;1.70;;;20.90;53.30;;;;;;5031755;28;20426;-70
2024/02/07 03:34:41;;;;;;;2.50;1.80;;;20.90;53.30;;;;;;5031364;28;20178;-71
2024/02/07 03:37:07;;;;;;;2.40;1.73;;;20.80;53.20;;;;;;5031348;28;20454;-70
2024/02/07 03:39:33;;;;;;;3.17;1.40;;;20.90;53.40;;;;;;5031883;28;20408;-69
2024/02/07 03:41:59;;;;;;;2.17;1.50;;;20.80;53.20;;;;;;5034131;28;20188;-70
2024/02/07 03:44:24;;;;;;;2.30;1.60;;;20.90;53.30;;;;;;5033467;28;20461;-70
2024/02/07 03:46:50;;;;;;;2.60;1.73;;;20.80;53.20;;;;;;5033616;28;20410;-70
2024/02/07 03:49:16;;;;;;;2.43;1.67;;;20.80;53.20;;;;;;5033655;28;20171;-69
2024/02/07 03:51:43;;;;;;;2.60;2.10;;;20.80;53.30;;;;;;5033354;28;20248;-70
2024/02/07 03:54:09;;;;;;;2.77;1.70;;;20.80;53.20;;;;;;5033550;28;21275;-70
2024/02/07 03:56:35;;;;;;;3.77;2.00;;;20.80;53.20;;;;;;5033562;28;20454;-70
2024/02/07 03:59:02;;;;;;;3.77;1.93;;;20.80;53.30;;;;;;5033148;28;20489;-70
2024/02/07 04:01:28;;;;;;;2.90;1.70;;;20.90;53.30;;;;;;5033404;28;20437;-70
2024/02/07 04:03:54;;;;;;;3.13;1.47;;;20.80;53.20;;;;;;5033591;28;20411;-70
2024/02/07 04:06:20;;;;;;;3.30;1.90;;;20.90;53.30;;;;;;5032986;28;20407;-70
2024/02/07 04:08:45;;;;;;;2.00;1.80;;;20.90;53.30;;;;;;5033282;28;20174;-70
2024/02/07 05:16:19;;;;;;;2.50;1.33;;;20.80;53.30;;;;;;5052064;28;20892;-70
2024/02/07 05:18:45;;;;;;;1.60;1.30;;;20.80;53.30;;;;;;5052151;28;20409;-69
2024/02/07 05:21:12;;;;;;;2.13;1.80;;;20.80;53.30;;;;;;5051522;28;20274;-70
2024/02/07 05:23:38;;;;;;;3.00;1.40;;;20.80;53.30;;;;;;5050549;28;20174;-70
2024/02/07 05:26:05;;;;;;;2.60;1.53;;;20.80;53.20;;;;;;5051583;28;20451;-71
2024/02/07 05:28:31;;;;;;;2.00;1.37;;;20.80;53.20;;;;;;5051675;28;20453;-69
2024/02/07 05:30:56;;;;;;;2.00;1.27;;;20.80;53.20;;;;;;5051618;28;20285;-70
2024/02/07 05:33:22;;;;;;;1.90;1.60;;;20.80;53.20;;;;;;5051523;28;20175;-70
2024/02/07 05:35:47;;;;;;;2.17;1.67;;;20.90;53.30;;;;;;5051373;28;20226;-71
2024/02/07 05:38:13;;;;;;;2.57;1.37;;;20.90;53.30;;;;;;5051482;28;20175;-69
2024/02/07 05:40:39;;;;;;;1.90;1.43;;;20.90;53.30;;;;;;5051302;28;20202;-69
2024/02/07 05:43:05;;;;;;;2.27;1.23;;;20.90;53.30;;;;;;5051400;28;20163;-70
2024/02/07 05:45:31;;;;;;;1.70;1.43;;;20.90;53.30;;;;;;5051348;28;20665;-70
2024/02/07 05:47:56;;;;;;;2.30;1.60;;;20.90;53.30;;;;;;5051277;28;20417;-69
2024/02/07 05:50:22;;;;;;;2.07;1.40;;;20.90;53.30;;;;;;5051263;28;20226;-70
2024/02/07 05:52:48;;;;;;;1.30;1.20;;;20.90;53.20;;;;;;5051338;28;20954;-70
2024/02/07 05:55:13;;;;;;;1.87;1.43;;;20.90;53.20;;;;;;5051406;28;20175;-70
2024/02/07 05:57:39;;;;;;;3.10;2.20;;;20.90;53.20;;;;;;5051446;28;20340;-70
2024/02/07 06:00:07;;;;;;;2.07;1.40;;;20.90;53.20;;;;;;5051373;28;20250;-69
2024/02/07 06:02:33;;;;;;;2.30;1.70;;;20.90;53.20;;;;;;5051130;28;20187;-69
2024/02/07 06:05:03;;;;;;;1.63;1.37;;;20.90;53.20;;;;;;5051829;28;20416;-69
2024/02/07 06:07:33;;;;;;;2.13;1.93;;;20.90;53.20;;;;;;5051889;28;20695;-70
2024/02/07 06:09:59;;;;;;;2.30;1.47;;;20.90;53.20;;;;;;5051673;28;20413;-70
2024/02/07 06:12:25;;;;;;;2.47;1.70;;;20.90;53.20;;;;;;5051704;28;20940;-68
2024/02/07 06:14:51;;;;;;;2.60;1.60;;;20.90;53.20;;;;;;5050577;28;20441;-69
2024/02/07 06:17:17;;;;;;;2.83;1.60;;;20.90;53.20;;;;;;5051537;28;21028;-70
2024/02/07 06:19:42;;;;;;;3.07;1.40;;;20.90;53.10;;;;;;5051623;28;20167;-70
2024/02/07 06:22:08;;;;;;;2.10;1.30;;;20.90;53.10;;;;;;5051806;28;20425;-69
2024/02/07 06:24:33;;;;;;;2.23;1.37;;;20.90;53.20;;;;;;5052149;28;20704;-70
2024/02/07 06:26:59;;;;;;;3.30;1.50;;;20.90;53.20;;;;;;5052178;28;20182;-68
2024/02/07 06:29:25;;;;;;;1.80;1.40;;;20.90;53.30;;;;;;5050785;28;20662;-69
2024/02/07 06:31:51;;;;;;;2.43;1.80;;;20.90;53.30;;;;;;5052203;28;20198;-69
2024/02/07 06:34:16;;;;;;;1.77;1.50;;;20.90;53.30;;;;;;5052000;28;20413;-70
2024/02/07 06:36:42;;;;;;;2.50;1.40;;;20.90;53.30;;;;;;5052062;28;20678;-70
2024/02/07 06:39:07;;;;;;;2.07;1.50;;;20.90;53.30;;;;;;5051750;28;20677;-70
2024/02/07 06:41:33;;;;;;;2.43;1.47;;;21.00;53.40;;;;;;5052078;28;20337;-69
2024/02/07 06:43:59;;;;;;;2.20;1.40;;;21.00;53.40;;;;;;5052065;28;20183;-70
2024/02/07 06:46:24;;;;;;;1.53;1.37;;;21.00;53.40;;;;;;5051997;28;20184;-70
2024/02/07 06:48:50;;;;;;;3.03;1.40;;;21.00;53.40;;;;;;5051885;28;20664;-70
2024/02/07 06:51:16;;;;;;;1.30;1.20;;;21.00;53.30;;;;;;5052548;28;20203;-70
2024/02/07 06:53:42;;;;;;;2.20;1.80;;;21.10;53.40;;;;;;5052257;28;20179;-70
2024/02/07 06:56:08;;;;;;;2.60;1.50;;;21.10;53.40;;;;;;5051875;28;20492;-71
2024/02/07 06:58:34;;;;;;;2.40;1.23;;;21.10;53.30;;;;;;5052033;28;20186;-69
2024/02/07 07:00:59;;;;;;;3.50;1.50;;;21.10;53.40;;;;;;5051698;28;20433;-70
2024/02/07 07:03:26;;;;;;;2.53;1.33;;;21.10;53.30;;;;;;5050267;28;20186;-70
2024/02/07 07:05:52;;;;;;;4.40;1.50;;;21.10;53.30;;;;;;5052288;28;20175;-70
2024/02/07 07:08:17;;;;;;;2.67;1.80;;;21.10;53.30;;;;;;5050480;28;20470;-70
2024/02/07 07:10:43;;;;;;;2.43;1.73;;;21.10;53.30;;;;;;5051856;28;20417;-69
2024/02/07 07:13:09;;;;;;;2.67;1.73;;;21.10;53.30;;;;;;5051691;28;20179;-70
2024/02/07 07:15:34;;;;;;;2.27;1.60;;;21.10;53.20;;;;;;5053778;28;20676;-71
2024/02/07 07:18:00;;;;;;;3.07;2.00;;;21.10;53.30;;;;;;5055694;28;20221;-70
2024/02/07 07:20:30;;;;;;;2.63;1.67;;;21.20;53.30;;;;;;5055366;28;20174;-69
2024/02/07 07:22:59;;;;;;;4.37;1.77;;;21.20;53.30;;;;;;5054574;28;20423;-70
2024/02/07 07:25:24;;;;;;;2.17;1.80;;;21.20;53.30;;;;;;5055767;28;20413;-70
2024/02/07 07:27:50;;;;;;;3.13;2.00;;;21.20;53.40;;;;;;5054193;28;20801;-70
2024/02/07 07:30:16;;;;;;;3.10;1.70;;;21.20;53.30;;;;;;5055305;28;20175;-70
2024/02/07 07:32:42;;;;;;;2.80;1.60;;;21.20;53.30;;;;;;5055066;28;20203;-70
2024/02/07 07:35:08;;;;;;;4.33;2.10;;;21.20;53.30;;;;;;5055036;28;20257;-70
2024/02/07 07:37:33;;;;;;;4.17;2.13;;;21.20;53.30;;;;;;5055034;28;20555;-70
2024/02/07 07:39:59;;;;;;;2.80;1.70;;;21.20;53.30;;;;;;5055392;28;20464;-70
2024/02/07 07:42:25;;;;;;;4.80;2.07;;;21.20;53.30;;;;;;5055425;28;20191;-69
2024/02/07 07:44:50;;;;;;;5.00;2.47;;;21.20;53.30;;;;;;5055028;28;20167;-70
2024/02/07 07:47:16;;;;;;;3.70;1.73;;;21.20;53.30;;;;;;5054015;28;20278;-69
2024/02/07 07:49:41;;;;;;;3.97;1.80;;;21.20;53.40;;;;;;5055199;28;20671;-70
2024/02/07 07:52:07;;;;;;;4.70;2.30;;;21.20;53.30;;;;;;5055367;28;20187;-70
2024/02/07 07:54:33;;;;;;;3.80;1.70;;;21.20;53.40;;;;;;5055366;28;20669;-68
2024/02/07 07:56:59;;;;;;;3.30;1.60;;;21.20;53.30;;;;;;5054969;28;20290;-70
2024/02/07 07:59:25;;;;;;;5.37;1.50;;;21.20;53.30;;;;;;5054804;28;20258;-70
2024/02/07 08:02:01;;;;;;;4.30;1.80;;;21.20;53.30;;;;;;5054875;28;20532;-68
2024/02/07 08:04:27;;;;;;;3.67;2.10;;;21.20;53.30;;;;;;5054868;28;20171;-70
2024/02/07 08:06:53;;;;;;;3.87;1.90;;;21.20;53.30;;;;;;5055343;28;20420;-68
2024/02/07 08:09:19;;;;;;;3.30;2.10;;;21.20;53.30;;;;;;5054812;28;20897;-70
2024/02/07 08:11:45;;;;;;;3.03;2.00;;;21.20;53.90;;;;;;5055101;28;20443;-70
2024/02/07 08:14:12;;;;;;;3.90;1.93;;;21.20;53.30;;;;;;5055073;28;20537;-70
2024/02/07 08:16:37;;;;;;;3.50;1.90;;;21.20;53.30;;;;;;5054939;28;20464;-71
2024/02/07 08:19:03;;;;;;;4.20;1.70;;;21.20;53.40;;;;;;5054518;28;20874;-69
2024/02/07 08:21:30;;;;;;;2.40;1.70;;;21.20;53.30;;;;;;5053422;28;20225;-69
2024/02/07 08:23:56;;;;;;;5.23;1.80;;;21.20;53.30;;;;;;5054656;28;20564;-70
2024/02/07 08:26:23;;;;;;;2.63;2.10;;;21.20;53.30;;;;;;5054192;28;20908;-71
2024/02/07 08:28:49;;;;;;;2.77;2.10;;;21.20;53.40;;;;;;5054649;28;20432;-69
2024/02/07 08:31:16;;;;;;;1.53;1.37;;;21.20;53.40;;;;;;5054385;28;20433;-69
2024/02/07 08:33:42;;;;;;;4.10;1.60;;;21.20;53.30;;;;;;5054779;28;20171;-70
2024/02/07 08:36:08;;;;;;;3.33;1.70;;;21.20;53.30;;;;;;5054002;28;20496;-71
2024/02/07 08:38:34;;;;;;;3.67;1.87;;;21.20;53.30;;;;;;5054565;28;20451;-69
2024/02/07 08:41:00;;;;;;;2.50;2.13;;;21.20;53.30;;;;;;5054219;28;20460;-69
2024/02/07 08:43:25;;;;;;;4.87;1.63;;;21.20;53.30;;;;;;5054017;28;20934;-69
2024/02/07 08:45:52;;;;;;;5.40;1.50;;;21.30;53.40;;;;;;5054280;28;20170;-69
2024/02/07 08:48:17;;;;;;;3.30;1.40;;;21.30;53.40;;;;;;5054265;28;20520;-68
2024/02/07 08:50:43;;;;;;;2.43;1.67;;;21.30;53.40;;;;;;5054204;28;20432;-69
2024/02/07 08:53:10;;;;;;;1.97;1.40;;;21.30;53.50;;;;;;5053991;28;20168;-69
2024/02/07 08:55:36;;;;;;;3.40;1.50;;;21.30;53.40;;;;;;5054488;28;20171;-70
2024/02/07 08:58:01;;;;;;;2.50;1.53;;;21.30;53.50;;;;;;5054113;28;20461;-71
2024/02/07 09:00:27;;;;;;;2.10;1.70;;;21.30;53.40;;;;;;5054165;28;20179;-70
2024/02/07 09:02:54;;;;;;;2.30;1.63;;;21.30;53.40;;;;;;5054254;28;20170;-70
2024/02/07 09:05:20;;;;;;;3.80;1.80;;;21.30;53.50;;;;;;5053802;28;20163;-70
2024/02/07 09:07:46;;;;;;;4.60;1.90;;;21.30;53.50;;;;;;5053957;28;20501;-69
2024/02/07 09:10:12;;;;;;;3.23;1.70;;;21.30;53.40;;;;;;5053947;28;20195;-69
2024/02/07 09:12:38;;;;;;;4.10;1.47;;;21.30;53.50;;;;;;5054291;28;20833;-70
2024/02/07 09:15:04;;;;;;;4.80;1.77;;;21.20;53.40;;;;;;5053415;28;20467;-69
2024/02/07 09:17:33;;;;;;;2.63;1.60;;;21.30;53.50;;;;;;5053532;28;20198;-70
2024/02/07 09:20:00;;;;;;;2.60;1.73;;;21.30;53.50;;;;;;5053731;28;20436;-70
2024/02/07 09:22:25;;;;;;;3.33;2.00;;;21.30;53.50;;;;;;5053216;28;20433;-70
2024/02/07 09:24:51;;;;;;;3.73;2.13;;;21.30;53.50;;;;;;5053334;28;20505;-69
2024/02/07 09:27:18;;;;;;;2.80;1.53;;;21.30;53.50;;;;;;5053084;28;20195;-70
2024/02/07 09:29:44;;;;;;;2.27;1.60;;;21.30;53.50;;;;;;5053132;28;20183;-70
2024/02/07 09:32:09;;;;;;;3.17;1.40;;;21.30;53.50;;;;;;5052903;28;20809;-70
2024/02/07 09:34:35;;;;;;;4.03;1.70;;;21.20;53.40;;;;;;5052962;28;20183;-70
2024/02/07 09:37:01;;;;;;;3.47;1.93;;;21.30;53.50;;;;;;5052646;28;20579;-70
2024/02/07 09:39:27;;;;;;;3.50;1.67;;;21.30;53.50;;;;;;5053174;28;20932;-70
2024/02/07 09:41:56;;;;;;;2.87;1.67;;;21.30;53.50;;;;;;5052905;28;20474;-69
2024/02/07 09:44:25;;;;;;;2.53;1.80;;;21.30;53.50;;;;;;5053253;28;20692;-70
2024/02/07 09:46:53;;;;;;;3.10;1.80;;;21.30;53.50;;;;;;5053374;28;20818;-70
2024/02/07 09:49:24;;;;;;;1.77;1.40;;;21.30;53.50;;;;;;5053102;28;20410;-70
2024/02/07 09:51:50;;;;;;;2.83;1.90;;;21.30;53.50;;;;;;5053145;28;20433;-70
2024/02/07 09:54:18;;;;;;;2.33;1.53;;;21.30;53.50;;;;;;5052024;28;20417;-68
2024/02/07 09:56:44;;;;;;;3.80;2.43;;;21.30;53.50;;;;;;5052716;28;20293;-70
2024/02/07 09:59:12;;;;;;;3.43;1.63;;;21.30;53.50;;;;;;5053096;28;20410;-69
2024/02/07 10:01:38;;;;;;;3.50;1.57;;;21.30;53.50;;;;;;5052926;28;20495;-70
2024/02/07 10:04:12;;;;;;;2.43;2.10;;;21.30;53.50;;;;;;5052406;28;20417;-70
2024/02/07 10:06:39;;;;;;;2.20;1.93;;;21.30;53.50;;;;;;5052657;28;20400;-68
2024/02/07 10:09:07;;;;;;;3.23;1.83;;;21.20;53.40;;;;;;5052638;28;20414;-69
2024/02/07 10:11:33;;;;;;;2.13;1.40;;;21.30;53.50;;;;;;5051439;28;20523;-69
2024/02/07 10:14:00;;;;;;;2.30;1.50;;;21.30;53.50;;;;;;5053060;28;20513;-70
2024/02/07 10:16:27;;;;;;;1.80;1.50;;;21.30;53.50;;;;;;5051509;28;20547;-71
2024/02/07 10:18:52;;;;;;;2.80;1.63;;;21.30;53.50;;;;;;5051412;28;20417;-70
2024/02/07 10:21:18;;;;;;;2.63;1.70;;;21.30;53.50;;;;;;5052840;28;20521;-70
2024/02/07 10:23:44;;;;;;;2.47;1.60;;;21.30;53.50;;;;;;5053088;28;20273;-70
2024/02/07 10:26:10;;;;;;;1.47;1.20;;;21.30;53.50;;;;;;5052808;28;20225;-69
2024/02/07 10:28:36;;;;;;;3.17;1.53;;;21.30;53.50;;;;;;5052620;28;20197;-69
2024/02/07 10:31:03;;;;;;;2.87;1.40;;;21.20;53.40;;;;;;5052857;28;20453;-71
2024/02/07 10:33:34;;;;;;;2.80;1.77;;;21.20;53.40;;;;;;5052936;28;20262;-70
2024/02/07 10:36:04;;;;;;;2.40;1.67;;;21.30;53.50;;;;;;5053132;28;20916;-70
2024/02/07 10:38:32;;;;;;;1.70;1.20;;;21.20;53.40;;;;;;5053044;28;20409;-70
2024/02/07 10:40:59;;;;;;;3.23;1.70;;;21.20;53.50;;;;;;5053265;28;20560;-70
2024/02/07 10:43:38;;;;;;;2.60;1.53;;;21.20;53.50;;;;;;5053502;28;20409;-70
2024/02/07 10:46:08;;;;;;;1.60;1.40;;;21.20;53.50;;;;;;5052839;28;20493;-70
2024/02/07 10:48:34;;;;;;;1.63;1.27;;;21.20;53.50;;;;;;5052718;28;20433;-70
2024/02/07 10:51:02;;;;;;;2.43;1.40;;;21.20;53.50;;;;;;5056080;28;20784;-70
2024/02/07 10:53:28;;;;;;;2.57;1.60;;;21.20;53.50;;;;;;5055989;28;20440;-70
2024/02/07 10:55:58;;;;;;;3.20;1.40;;;21.20;53.50;;;;;;5054561;28;20401;-70
2024/02/07 10:58:26;;;;;;;2.33;1.33;;;21.20;53.50;;;;;;5055384;28;20500;-70
2024/02/07 11:00:53;;;;;;;2.47;1.40;;;21.20;53.50;;;;;;5055675;28;20456;-70
2024/02/07 11:03:23;;;;;;;3.73;1.47;;;21.20;53.50;;;;;;5056070;28;20420;-70
2024/02/07 11:05:50;;;;;;;1.60;1.40;;;21.20;53.50;;;;;;5055549;28;20475;-70
2024/02/07 11:08:16;;;;;;;2.70;1.57;;;21.20;53.60;;;;;;5055059;28;20405;-70
2024/02/07 11:10:42;;;;;;;3.00;1.60;;;21.20;53.60;;;;;;5055298;28;20441;-69
2024/02/07 11:13:12;;;;;;;2.00;1.50;;;21.20;53.60;;;;;;5055250;28;20413;-70
2024/02/07 11:15:38;;;;;;;2.13;1.37;;;21.20;53.60;;;;;;5055223;28;20417;-70
2024/02/07 11:18:10;;;;;;;1.93;1.20;;;21.20;53.60;;;;;;5055112;28;20548;-70
2024/02/07 11:20:36;;;;;;;2.93;1.37;;;21.20;53.60;;;;;;5054831;28;20474;-70
2024/02/07 11:23:18;;;;;;;1.57;1.20;;;21.20;53.60;;;;;;5054956;28;20413;-71
2024/02/07 11:25:46;;;;;;;2.00;1.43;;;21.20;53.60;;;;;;5055144;28;20385;-71
2024/02/07 11:28:11;;;;;;;1.90;1.20;;;21.20;53.60;;;;;;5055261;28;20778;-70
2024/02/07 11:30:37;;;;;;;3.30;1.60;;;21.20;53.60;;;;;;5055342;28;20425;-69
2024/02/07 11:33:03;;;;;;;2.30;1.40;;;21.20;53.60;;;;;;5055027;28;20177;-69
2024/02/07 11:35:35;;;;;;;2.10;1.20;;;21.20;53.60;;;;;;5054527;28;20175;-70
2024/02/07 11:38:02;;;;;;;2.80;1.00;;;21.20;53.60;;;;;;5054933;28;20946;-70
2024/02/07 11:40:37;;;;;;;1.80;1.40;;;21.20;53.60;;;;;;5055142;28;20563;-70
2024/02/07 11:43:03;;;;;;;2.07;1.30;;;21.30;53.60;;;;;;5055257;28;20421;-69
2024/02/07 11:45:29;;;;;;;1.90;1.30;;;21.20;53.60;;;;;;5054744;28;20405;-70
2024/02/07 11:47:55;;;;;;;1.70;1.40;;;21.20;53.60;;;;;;5055340;28;20470;-70
2024/02/07 11:50:21;;;;;;;2.87;1.57;;;21.20;53.60;;;;;;5055190;28;20740;-70
2024/02/07 11:52:48;;;;;;;1.70;1.03;;;21.20;53.60;;;;;;5055062;28;20437;-71
2024/02/07 11:55:16;;;;;;;2.20;1.23;;;21.20;53.60;;;;;;5055696;28;20405;-70
2024/02/07 11:57:47;;;;;;;1.73;1.37;;;21.20;53.60;;;;;;5054834;28;20982;-70
2024/02/07 12:00:15;;;;;;;1.50;1.20;;;21.20;53.60;;;;;;5053793;28;20467;-69
2024/02/07 12:02:52;;;;;;;1.93;1.73;;;21.20;53.60;;;;;;5054454;28;20488;-71
2024/02/07 12:05:20;;;;;;;2.47;1.57;;;21.30;53.70;;;;;;5054485;28;20500;-71
2024/02/07 12:07:49;;;;;;;2.03;1.30;;;21.20;53.60;;;;;;5054706;28;21257;-70
2024/02/07 12:10:15;;;;;;;2.20;1.50;;;21.20;53.70;;;;;;5054075;28;20413;-71
2024/02/07 12:12:41;;;;;;;1.63;1.30;;;21.20;53.70;;;;;;5054619;28;20412;-70
2024/02/07 12:15:07;;;;;;;1.70;1.13;;;21.20;53.70;;;;;;5054502;28;20302;-69
2024/02/07 12:17:36;;;;;;;1.70;1.60;;;21.20;53.70;;;;;;5054117;28;20202;-71
2024/02/07 12:20:02;;;;;;;3.63;2.40;;;21.20;53.70;;;;;;5054154;28;20405;-71
2024/02/07 12:22:30;;;;;;;5.27;2.70;;;21.20;53.70;;;;;;5054011;28;20444;-70
2024/02/07 12:25:00;;;;;;;2.13;1.40;;;21.20;53.60;;;;;;5054257;28;20405;-71
2024/02/07 12:27:26;;;;;;;3.00;2.10;;;21.20;53.60;;;;;;5054313;28;20414;-71
2024/02/07 12:29:53;;;;;;;3.10;1.70;;;21.20;53.60;;;;;;5054222;28;20755;-71
2024/02/07 12:32:20;;;;;;;2.63;1.80;;;21.20;53.70;;;;;;5053989;28;20532;-68
2024/02/07 12:34:46;;;;;;;3.37;2.10;;;21.20;53.70;;;;;;5054218;28;20421;-70
2024/02/07 12:37:17;;;;;;;3.17;2.27;;;21.20;53.70;;;;;;5052775;28;20461;-70
2024/02/07 12:39:46;;;;;;;5.33;3.13;;;21.20;53.70;;;;;;5054474;28;20410;-71
2024/02/07 12:42:27;;;;;;;10.30;3.90;;;21.20;53.70;;;;;;5052439;28;20440;-71
2024/02/07 12:44:53;;;;;;;11.27;4.80;;;21.20;53.70;;;;;;5054269;28;20410;-71
2024/02/07 12:47:21;;;;;;;13.13;5.20;;;21.20;53.70;;;;;;5054369;28;20488;-71
2024/02/07 12:49:48;;;;;;;9.03;4.90;;;21.20;53.70;;;;;;5054528;28;20420;-70
2024/02/07 12:52:14;;;;;;;12.60;6.30;;;21.20;53.70;;;;;;5054148;28;20461;-71
2024/02/07 12:54:40;;;;;;;17.73;7.40;;;21.20;53.70;;;;;;5054566;28;20448;-71
2024/02/07 12:57:06;;;;;;;19.03;7.90;;;21.20;53.70;;;;;;5054028;28;20203;-70
2024/02/07 12:59:37;;;;;;;20.63;7.73;;;21.20;53.70;;;;;;5053725;28;20197;-71
2024/02/07 13:02:08;;;;;;;20.10;7.97;;;21.20;53.70;;;;;;5053980;28;20516;-72
2024/02/07 13:04:34;;;;;;;23.83;8.17;;;21.20;53.70;;;;;;5054123;28;20389;-70
2024/02/07 13:07:01;;;;;;;24.80;8.20;;;21.20;53.80;;;;;;5054659;28;20413;-71
2024/02/07 13:09:27;;;;;;;19.90;8.47;;;21.20;53.80;;;;;;5055120;28;20175;-69
2024/02/07 13:11:54;;;;;;;22.43;8.30;;;21.20;53.80;;;;;;5054025;28;20425;-72
2024/02/07 13:14:20;;;;;;;18.97;8.70;;;21.20;53.80;;;;;;5054337;28;20425;-70
2024/02/07 13:16:45;;;;;;;17.70;7.87;;;21.20;53.80;;;;;;5054319;28;20437;-71
2024/02/07 13:19:15;;;;;;;21.10;7.50;;;21.20;53.80;;;;;;5054025;28;20163;-71
2024/02/07 13:21:43;;;;;;;16.60;8.27;;;21.20;53.80;;;;;;5053013;28;20199;-71
2024/02/07 13:24:17;;;;;;;19.50;7.17;;;21.20;53.80;;;;;;5054449;28;20409;-71
2024/02/07 13:26:47;;;;;;;16.90;8.67;;;21.20;53.90;;;;;;5052639;28;20414;-70
2024/02/07 13:29:13;;;;;;;18.70;7.63;;;21.20;53.90;;;;;;5054484;28;20421;-70
2024/02/07 13:31:40;;;;;;;28.37;9.30;;;21.20;53.90;;;;;;5054605;28;20435;-69
2024/02/07 13:34:09;;;;;;;16.50;6.60;;;21.20;53.90;;;;;;5054942;28;20845;-71
2024/02/07 13:36:35;;;;;;;15.40;7.87;;;21.20;53.90;;;;;;5054576;28;20465;-71
2024/02/07 13:39:00;;;;;;;18.67;7.70;;;21.20;53.90;;;;;;5054527;28;20410;-69
2024/02/07 13:41:27;;;;;;;19.83;8.47;;;21.20;53.90;;;;;;5054315;28;20202;-71
2024/02/07 13:43:52;;;;;;;19.03;7.80;;;21.20;53.90;;;;;;5054681;28;20175;-70
2024/02/07 13:46:18;;;;;;;19.77;8.33;;;21.20;53.90;;;;;;5054219;28;20810;-68
2024/02/07 13:48:44;;;;;;;24.73;9.67;;;21.20;53.90;;;;;;5054314;28;20185;-69